createdAt,value
2022-12-11T00:00:09.983Z,16.95
2022-12-11T00:02:37.582Z,17.42
2022-12-11T00:05:06.015Z,17.13
2022-12-11T00:07:33.884Z,17.23
2022-12-11T00:10:02.022Z,16.02
2022-12-11T00:12:31.388Z,17.33
2022-12-11T00:14:59.091Z,17.58
2022-12-11T00:17:27.158Z,17.83
2022-12-11T00:19:55.507Z,17.47
2022-12-11T00:22:23.152Z,18.73
2022-12-11T00:24:51.574Z,16.63
2022-12-11T00:27:19.198Z,17.67
2022-12-11T00:29:48.244Z,17.42
2022-12-11T00:32:15.902Z,21.02
2022-12-11T00:34:43.620Z,24.13
2022-12-11T00:37:11.425Z,18.30
2022-12-11T00:39:42.536Z,16.73
2022-12-11T00:42:10.717Z,17.88
2022-12-11T00:44:38.440Z,17.58
2022-12-11T00:47:06.119Z,18.20
2022-12-11T00:49:33.822Z,17.45
2022-12-11T00:52:01.416Z,18.45
2022-12-11T00:54:29.052Z,19.90
2022-12-11T00:56:56.850Z,18.73
2022-12-11T00:59:24.546Z,19.15
2022-12-11T01:01:52.582Z,18.17
2022-12-11T01:04:20.244Z,19.20
2022-12-11T01:06:47.841Z,18.52
2022-12-11T01:09:41.519Z,17.40
2022-12-11T01:12:09.393Z,17.45
2022-12-11T01:14:37.216Z,18.60
2022-12-11T01:17:05.104Z,17.70
2022-12-11T01:19:33.384Z,18.98
2022-12-11T01:22:01.125Z,17.83
2022-12-11T01:24:28.838Z,17.52
2022-12-11T01:26:56.633Z,18.75
2022-12-11T01:29:24.264Z,17.38
2022-12-11T01:31:51.943Z,19.38
2022-12-11T01:34:19.707Z,18.58
2022-12-11T01:36:47.328Z,19.70
2022-12-11T01:39:15.040Z,20.30
2022-12-11T01:41:42.725Z,17.90
2022-12-11T01:44:16.377Z,18.92
2022-12-11T01:46:44.406Z,18.20
2022-12-11T01:49:15.742Z,19.77
2022-12-11T01:52:03.797Z,18.83
2022-12-11T01:54:31.814Z,18.70
2022-12-11T01:57:06.219Z,16.73
2022-12-11T01:59:37.907Z,16.63
2022-12-11T02:02:21.131Z,18.63
2022-12-11T02:04:49.443Z,18.58
2022-12-11T02:07:17.444Z,18.63
2022-12-11T02:09:47.675Z,18.40
2022-12-11T02:12:31.027Z,18.80
2022-12-11T02:15:33.027Z,18.92
2022-12-11T02:18:27.790Z,17.40
2022-12-11T02:21:09.006Z,29.48
2022-12-11T02:24:04.683Z,21.45
2022-12-11T02:27:17.115Z,16.95
2022-12-11T02:30:11.973Z,17.05
2022-12-11T02:32:56.727Z,16.17
2022-12-11T02:35:42.198Z,17.65
2022-12-11T02:38:21.346Z,17.02
2022-12-11T02:43:19.051Z,15.10
2022-12-11T02:45:48.837Z,15.82
2022-12-11T02:48:19.851Z,16.65
2022-12-11T02:50:53.650Z,17.27
2022-12-11T02:53:26.384Z,15.35
2022-12-11T02:56:10.558Z,15.82
2022-12-11T02:58:46.872Z,15.55
2022-12-11T03:01:14.704Z,16.02
2022-12-11T03:03:42.747Z,17.35
2022-12-11T03:06:18.383Z,16.65
2022-12-11T03:08:46.482Z,16.65
2022-12-11T03:11:14.507Z,16.10
2022-12-11T03:13:43.145Z,15.38
2022-12-11T03:16:35.808Z,15.85
2022-12-11T03:19:30.169Z,16.30
2022-12-11T03:22:12.929Z,16.77
2022-12-11T03:24:47.447Z,16.35
2022-12-11T03:27:42.761Z,17.13
2022-12-11T03:30:19.365Z,15.05
2022-12-11T03:32:59.091Z,15.27
2022-12-11T03:35:35.081Z,14.98
2022-12-11T03:38:11.343Z,16.05
2022-12-11T03:40:42.800Z,14.63
2022-12-11T03:43:12.351Z,15.38
2022-12-11T03:45:42.014Z,16.88
2022-12-11T03:48:11.982Z,16.88
2022-12-11T03:50:41.083Z,16.30
2022-12-11T03:53:14.929Z,15.77
2022-12-11T03:55:43.351Z,16.30
2022-12-11T03:58:11.200Z,16.98
2022-12-11T04:00:39.459Z,15.38
2022-12-11T04:03:14.153Z,15.55
2022-12-11T04:05:54.799Z,14.73
2022-12-11T04:08:23.864Z,16.13
2022-12-11T04:13:39.897Z,14.27
2022-12-11T04:16:08.096Z,14.77
2022-12-11T04:18:54.842Z,14.63
2022-12-11T04:21:41.102Z,14.50
2022-12-11T04:24:15.217Z,14.48
2022-12-11T04:26:47.524Z,14.45
2022-12-11T04:29:15.561Z,15.30
2022-12-11T04:31:43.219Z,14.68
2022-12-11T04:34:11.047Z,14.77
2022-12-11T04:36:38.845Z,14.70
2022-12-11T04:39:06.829Z,14.88
2022-12-11T04:41:35.224Z,15.35
2022-12-11T04:44:03.105Z,15.77
2022-12-11T04:46:30.886Z,19.08
2022-12-11T04:49:00.236Z,16.30
2022-12-11T04:51:28.889Z,14.50
2022-12-11T04:53:58.384Z,13.73
2022-12-11T04:56:26.134Z,15.85
2022-12-11T04:58:53.787Z,16.20
2022-12-11T05:01:23.403Z,13.63
2022-12-11T05:03:51.729Z,15.02
2022-12-11T05:06:19.361Z,14.93
2022-12-11T05:08:47.081Z,13.80
2022-12-11T05:11:16.322Z,14.73
2022-12-11T05:13:44.949Z,14.70
2022-12-11T05:16:16.654Z,14.10
2022-12-11T05:18:44.894Z,14.55
2022-12-11T05:21:14.854Z,14.37
2022-12-11T05:23:43.385Z,14.55
2022-12-11T05:26:18.186Z,15.05
2022-12-11T05:28:46.889Z,13.25
2022-12-11T05:31:21.352Z,12.10
2022-12-11T05:33:50.566Z,12.35
2022-12-11T05:36:30.480Z,13.20
2022-12-11T05:39:00.331Z,12.45
2022-12-11T05:41:30.970Z,12.70
2022-12-11T05:43:58.947Z,12.07
2022-12-11T05:46:29.410Z,11.95
2022-12-11T05:49:00.897Z,12.70
2022-12-11T05:51:30.137Z,11.90
2022-12-11T05:53:58.750Z,12.23
2022-12-11T05:56:30.998Z,13.10
2022-12-11T05:59:01.179Z,11.85
2022-12-11T06:01:42.315Z,12.65
2022-12-11T06:04:12.246Z,12.98
2022-12-11T06:06:40.530Z,10.95
2022-12-11T06:09:08.730Z,12.07
2022-12-11T06:11:36.900Z,12.98
2022-12-11T06:14:04.842Z,13.05
2022-12-11T06:16:33.077Z,12.88
2022-12-11T06:19:00.968Z,12.20
2022-12-11T06:21:32.366Z,12.25
2022-12-11T06:24:03.059Z,11.48
2022-12-11T06:26:32.085Z,12.20
2022-12-11T06:29:00.269Z,11.80
2022-12-11T06:31:27.986Z,11.70
2022-12-11T06:33:55.894Z,11.77
2022-12-11T06:36:25.175Z,12.38
2022-12-11T06:38:53.156Z,12.88
2022-12-11T06:41:20.949Z,14.07
2022-12-11T06:43:48.757Z,13.67
2022-12-11T06:46:19.979Z,12.93
2022-12-11T06:48:48.695Z,13.30
2022-12-11T06:51:21.003Z,13.18
2022-12-11T06:53:56.958Z,13.82
2022-12-11T06:56:25.323Z,13.70
2022-12-11T06:58:53.338Z,13.88
2022-12-11T07:01:25.251Z,14.32
2022-12-11T07:03:59.131Z,14.50
2022-12-11T07:06:28.882Z,13.68
2022-12-11T07:08:57.520Z,14.90
2022-12-11T07:11:25.568Z,13.50
2022-12-11T07:13:53.190Z,14.73
2022-12-11T07:16:21.484Z,14.43
2022-12-11T07:18:51.160Z,15.50
2022-12-11T07:21:20.480Z,16.13
2022-12-11T07:23:49.738Z,14.63
2022-12-11T07:26:20.727Z,14.15
2022-12-11T07:28:49.616Z,13.93
2022-12-11T07:31:22.102Z,15.10
2022-12-11T07:33:55.120Z,16.98
2022-12-11T07:36:24.333Z,16.20
2022-12-11T07:38:53.006Z,16.92
2022-12-11T07:41:21.634Z,16.33
2022-12-11T07:43:55.468Z,15.57
2022-12-11T07:46:26.683Z,14.27
2022-12-11T07:48:54.567Z,14.10
2022-12-11T07:51:27.992Z,14.88
2022-12-11T07:54:08.982Z,14.10
2022-12-11T07:56:36.733Z,14.13
2022-12-11T07:59:06.002Z,14.98
2022-12-11T08:01:36.693Z,13.43
2022-12-11T08:04:10.703Z,14.10
2022-12-11T08:06:40.304Z,13.20
2022-12-11T08:09:17.314Z,14.30
2022-12-11T08:11:51.243Z,14.98
2022-12-11T08:14:20.110Z,15.20
2022-12-11T08:16:48.954Z,15.20
2022-12-11T08:19:18.046Z,15.40
2022-12-11T08:21:45.965Z,15.02
2022-12-11T08:24:16.488Z,15.23
2022-12-11T08:26:45.860Z,15.23
2022-12-11T08:29:14.113Z,15.50
2022-12-11T08:31:42.712Z,15.38
2022-12-11T08:34:13.802Z,15.40
2022-12-11T08:36:41.417Z,14.45
2022-12-11T08:39:09.241Z,16.00
2022-12-11T08:41:36.966Z,15.15
2022-12-11T08:44:06.107Z,14.88
2022-12-11T08:46:39.846Z,15.25
2022-12-11T08:49:07.644Z,17.80
2022-12-11T08:51:35.266Z,16.05
2022-12-11T08:54:02.963Z,15.80
2022-12-11T08:56:31.208Z,15.57
2022-12-11T08:59:01.346Z,16.15
2022-12-11T09:01:30.081Z,17.17
2022-12-11T09:03:58.682Z,15.80
2022-12-11T09:06:29.682Z,16.38
2022-12-11T09:09:01.700Z,15.32
2022-12-11T09:11:33.848Z,15.77
2022-12-11T09:14:07.232Z,15.00
2022-12-11T09:16:39.700Z,16.30
2022-12-11T09:19:13.685Z,16.38
2022-12-11T09:21:43.367Z,16.58
2022-12-11T09:24:12.722Z,16.63
2022-12-11T09:26:41.356Z,16.48
2022-12-11T09:29:10.671Z,16.98
2022-12-11T09:31:41.077Z,17.85
2022-12-11T09:34:12.543Z,17.95
2022-12-11T09:36:42.462Z,18.52
2022-12-11T09:39:12.280Z,18.80
2022-12-11T09:41:45.914Z,17.60
2022-12-11T09:44:33.299Z,19.73
2022-12-11T09:47:01.733Z,19.33
2022-12-11T09:49:41.640Z,19.23
2022-12-11T09:52:29.793Z,17.88
2022-12-11T09:55:01.730Z,18.95
2022-12-11T09:57:59.044Z,17.98
2022-12-11T10:00:37.833Z,18.33
2022-12-11T10:03:37.305Z,19.30
2022-12-11T10:06:11.037Z,19.20
2022-12-11T10:09:27.727Z,18.27
2022-12-11T10:12:23.601Z,19.75
2022-12-11T10:15:20.439Z,18.77
2022-12-11T10:17:48.185Z,18.50
2022-12-11T10:20:28.726Z,19.48
2022-12-11T10:22:57.870Z,18.95
2022-12-11T10:28:17.885Z,19.75
2022-12-11T10:31:02.391Z,19.95
2022-12-11T10:33:52.393Z,18.77
2022-12-11T10:36:28.707Z,17.88
2022-12-11T10:38:56.838Z,18.20
2022-12-11T10:41:43.691Z,18.60
2022-12-11T10:44:29.280Z,18.10
2022-12-11T10:47:14.620Z,17.85
2022-12-11T10:49:58.290Z,16.90
2022-12-11T10:52:34.016Z,17.48
2022-12-11T10:55:06.731Z,18.52
2022-12-11T10:57:39.558Z,17.02
2022-12-11T11:00:31.308Z,17.83
2022-12-11T11:02:59.827Z,17.38
2022-12-11T11:05:37.167Z,18.08
2022-12-11T11:08:21.476Z,17.55
2022-12-11T11:11:02.938Z,19.15
2022-12-11T11:13:32.336Z,16.98
2022-12-11T11:16:05.673Z,17.25
2022-12-11T11:18:34.814Z,20.23
2022-12-11T11:23:30.669Z,17.00
2022-12-11T11:26:01.556Z,17.13
2022-12-11T11:28:36.839Z,16.63
2022-12-11T11:31:12.139Z,16.70
2022-12-11T11:33:55.048Z,16.42
2022-12-11T11:36:29.578Z,17.35
2022-12-11T11:39:37.785Z,18.60
2022-12-11T11:42:21.547Z,17.58
2022-12-11T11:45:18.134Z,16.92
2022-12-11T11:48:11.634Z,18.02
2022-12-11T11:50:45.695Z,17.15
2022-12-11T11:53:23.818Z,20.70
2022-12-11T11:56:23.874Z,22.17
2022-12-11T11:59:19.428Z,20.27
2022-12-11T12:01:47.895Z,16.90
2022-12-11T12:04:16.206Z,16.33
2022-12-11T12:07:19.809Z,16.42
2022-12-11T12:09:54.266Z,15.18
2022-12-11T12:13:18.781Z,15.50
2022-12-11T12:16:02.573Z,15.55
2022-12-11T12:18:43.032Z,15.65
2022-12-11T12:21:30.612Z,17.10
2022-12-11T12:24:24.391Z,15.93
2022-12-11T12:27:51.167Z,15.85
2022-12-11T12:30:21.984Z,16.15
2022-12-11T12:32:56.275Z,20.63
2022-12-11T12:35:34.695Z,21.33
2022-12-11T12:38:22.787Z,15.70
2022-12-11T12:41:24.484Z,15.77
2022-12-11T12:44:38.703Z,16.10
2022-12-11T12:47:13.884Z,15.32
2022-12-11T12:49:50.335Z,16.98
2022-12-11T12:52:34.768Z,15.73
2022-12-11T12:55:25.325Z,15.63
2022-12-11T12:58:00.616Z,15.13
2022-12-11T13:00:41.707Z,15.32
2022-12-11T13:03:30.455Z,15.43
2022-12-11T13:06:10.519Z,14.90
2022-12-11T13:08:49.024Z,15.07
2022-12-11T13:11:21.060Z,16.23
2022-12-11T13:14:16.386Z,15.02
2022-12-11T13:16:47.073Z,15.90
2022-12-11T13:19:24.010Z,16.80
2022-12-11T13:22:13.404Z,15.50
2022-12-11T13:25:02.613Z,15.20
2022-12-11T13:27:39.903Z,16.42
2022-12-11T13:30:15.560Z,16.67
2022-12-11T13:32:59.610Z,16.83
2022-12-11T13:35:27.433Z,16.10
2022-12-11T13:38:03.948Z,15.80
2022-12-11T13:41:24.194Z,17.00
2022-12-11T13:45:14.987Z,17.13
2022-12-11T13:49:07.027Z,16.48
2022-12-11T13:52:31.011Z,16.33
2022-12-11T13:55:29.641Z,16.45
2022-12-11T13:57:58.442Z,16.40
2022-12-11T14:00:32.972Z,16.08
2022-12-11T14:03:09.660Z,16.38
2022-12-11T14:05:37.654Z,17.30
2022-12-11T14:08:11.745Z,16.25
2022-12-11T14:10:40.237Z,17.15
2022-12-11T14:13:29.247Z,16.40
2022-12-11T14:18:30.672Z,15.20
2022-12-11T14:21:02.334Z,15.63
2022-12-11T14:23:36.158Z,17.65
2022-12-11T14:26:17.351Z,16.27
2022-12-11T14:28:45.294Z,15.20
2022-12-11T14:31:41.996Z,16.08
2022-12-11T14:34:19.997Z,16.08
2022-12-11T14:36:49.684Z,15.77
2022-12-11T14:39:54.914Z,15.60
2022-12-11T14:42:31.369Z,18.52
2022-12-11T14:45:13.541Z,17.88
2022-12-11T14:47:44.392Z,18.85
2022-12-11T14:50:24.134Z,21.35
2022-12-11T14:53:04.482Z,21.10
2022-12-11T14:55:36.615Z,19.13
2022-12-11T14:58:22.247Z,20.17
2022-12-11T15:01:00.584Z,20.63
2022-12-11T15:03:40.922Z,21.10
2022-12-11T15:06:42.489Z,21.42
2022-12-11T15:09:37.964Z,20.45
2022-12-11T15:12:12.768Z,19.83
2022-12-11T15:14:58.516Z,20.55
2022-12-11T15:17:28.104Z,20.83
2022-12-11T15:20:07.771Z,21.45
2022-12-11T15:22:35.964Z,21.80
2022-12-11T15:25:05.883Z,23.13
2022-12-11T15:27:38.059Z,21.92
2022-12-11T15:30:27.174Z,21.08
2022-12-11T15:33:09.977Z,22.65
2022-12-11T15:35:40.308Z,20.77
2022-12-11T15:38:47.280Z,21.92
2022-12-11T15:41:21.128Z,21.63
2022-12-11T15:43:58.823Z,23.35
2022-12-11T15:46:28.142Z,22.10
2022-12-11T15:48:57.666Z,24.15
2022-12-11T15:51:27.321Z,24.08
2022-12-11T15:53:55.000Z,24.77
2022-12-11T15:56:22.755Z,23.55
2022-12-11T15:58:50.897Z,23.20
2022-12-11T16:01:18.633Z,22.80
2022-12-11T16:03:46.296Z,22.95
2022-12-11T16:06:14.541Z,25.48
2022-12-11T16:08:45.902Z,23.95
2022-12-11T16:11:14.475Z,22.23
2022-12-11T16:13:42.111Z,26.67
2022-12-11T16:16:09.839Z,22.00
2022-12-11T16:18:37.575Z,21.80
2022-12-11T16:21:06.733Z,23.52
2022-12-11T16:23:34.738Z,23.85
2022-12-11T16:26:09.632Z,25.33
2022-12-11T16:28:37.651Z,26.10
2022-12-11T16:31:10.724Z,25.05
2022-12-11T16:33:39.016Z,27.48
2022-12-11T16:36:18.717Z,25.23
2022-12-11T16:38:53.785Z,26.80
2022-12-11T16:41:23.450Z,25.52
2022-12-11T16:46:24.303Z,25.25
2022-12-11T16:48:52.213Z,26.38
2022-12-11T16:51:19.886Z,24.48
2022-12-11T16:53:47.615Z,27.05
2022-12-11T16:57:10.353Z,25.02
2022-12-11T16:59:40.580Z,25.23
2022-12-11T17:02:10.717Z,24.45
2022-12-11T17:04:39.404Z,28.48
2022-12-11T17:07:07.485Z,26.33
2022-12-11T17:09:36.177Z,26.27
2022-12-11T17:12:05.529Z,28.00
2022-12-11T17:14:33.237Z,24.50
2022-12-11T17:17:01.214Z,26.00
2022-12-11T17:19:29.171Z,26.02
2022-12-11T17:21:57.707Z,26.95
2022-12-11T17:24:25.625Z,27.40
2022-12-11T17:26:55.393Z,27.05
2022-12-11T17:29:24.307Z,27.30
2022-12-11T17:31:51.941Z,29.27
2022-12-11T17:34:19.792Z,29.17
2022-12-11T17:36:48.310Z,32.17
2022-12-11T17:39:16.627Z,31.02
2022-12-11T17:41:44.334Z,29.65
2022-12-11T17:44:15.608Z,27.67
2022-12-11T17:46:47.033Z,27.65
2022-12-11T17:49:14.678Z,26.33
2022-12-11T17:51:42.363Z,29.75
2022-12-11T17:54:10.917Z,27.65
2022-12-11T17:56:38.559Z,28.92
2022-12-11T17:59:06.236Z,30.00
2022-12-11T18:01:34.160Z,28.02
2022-12-11T18:04:02.354Z,30.20
2022-12-11T18:06:32.545Z,28.80
2022-12-11T18:09:01.168Z,28.88
2022-12-11T18:11:29.688Z,26.95
2022-12-11T18:13:57.664Z,28.95
2022-12-11T18:16:30.986Z,28.55
2022-12-11T18:18:59.446Z,28.30
2022-12-11T18:21:34.478Z,27.95
2022-12-11T18:24:02.787Z,27.05
2022-12-11T18:26:30.402Z,28.27
2022-12-11T18:28:58.295Z,28.35
2022-12-11T18:31:26.149Z,28.45
2022-12-11T18:33:54.182Z,27.25
2022-12-11T18:36:22.561Z,29.45
2022-12-11T18:38:50.256Z,27.75
2022-12-11T18:41:19.401Z,28.23
2022-12-11T18:46:18.179Z,26.50
2022-12-11T18:48:48.236Z,25.58
2022-12-11T18:51:20.478Z,24.40
2022-12-11T18:53:48.175Z,26.05
2022-12-11T18:56:18.751Z,27.25
2022-12-11T18:58:47.261Z,26.98
2022-12-11T19:01:25.895Z,27.77
2022-12-11T19:04:04.237Z,26.77
2022-12-11T19:06:36.323Z,27.23
2022-12-11T19:09:06.842Z,27.20
2022-12-11T19:11:36.702Z,28.48
2022-12-11T19:14:06.056Z,28.33
2022-12-11T19:19:20.113Z,28.15
2022-12-11T19:21:49.218Z,29.40
2022-12-11T19:24:23.165Z,31.23
2022-12-11T19:26:51.415Z,30.83
2022-12-11T19:29:34.191Z,31.73
2022-12-11T19:32:05.340Z,30.23
2022-12-11T19:34:33.101Z,29.52
2022-12-11T19:37:00.803Z,29.85
2022-12-11T19:39:29.297Z,29.98
2022-12-11T19:41:57.295Z,29.80
2022-12-11T19:44:51.002Z,30.33
2022-12-11T19:47:18.653Z,30.77
2022-12-11T19:49:48.582Z,31.60
2022-12-11T19:52:16.808Z,31.73
2022-12-11T19:54:50.663Z,32.20
2022-12-11T19:57:18.591Z,29.20
2022-12-11T19:59:56.785Z,29.87
2022-12-11T20:02:25.644Z,27.90
2022-12-11T20:04:54.118Z,30.25
2022-12-11T20:07:26.106Z,32.15
2022-12-11T20:10:00.106Z,31.42
2022-12-11T20:12:28.505Z,31.95
2022-12-11T20:14:56.223Z,30.75
2022-12-11T20:17:25.594Z,29.75
2022-12-11T20:19:53.649Z,30.60
2022-12-11T20:22:21.592Z,31.50
2022-12-11T20:24:49.268Z,27.50
2022-12-11T20:27:16.935Z,29.08
2022-12-11T20:29:44.769Z,28.20
2022-12-11T20:32:12.613Z,28.92
2022-12-11T20:34:40.425Z,29.10
2022-12-11T20:37:08.312Z,29.60
2022-12-11T20:39:36.697Z,28.60
2022-12-11T20:42:05.006Z,30.60
2022-12-11T20:44:34.852Z,29.70
2022-12-11T20:47:02.820Z,27.10
2022-12-11T20:49:30.554Z,27.80
2022-12-11T20:51:59.617Z,26.52
2022-12-11T20:56:54.942Z,26.33
2022-12-11T20:59:23.436Z,26.42
2022-12-11T21:01:51.613Z,28.38
2022-12-11T21:04:19.927Z,25.83
2022-12-11T21:06:55.097Z,27.15
2022-12-11T21:09:25.714Z,26.52
2022-12-11T21:12:00.893Z,28.77
2022-12-11T21:14:30.180Z,27.73
2022-12-11T21:16:59.249Z,29.33
2022-12-11T21:19:27.494Z,28.20
2022-12-11T21:21:56.273Z,31.13
2022-12-11T21:24:27.574Z,27.10
2022-12-11T21:26:58.298Z,30.73
2022-12-11T21:29:29.229Z,28.80
2022-12-11T21:31:57.631Z,27.88
2022-12-11T21:34:26.046Z,29.40
2022-12-11T21:36:57.040Z,28.65
2022-12-11T21:39:28.252Z,29.88
2022-12-11T21:41:58.052Z,27.88
2022-12-11T21:45:37.525Z,26.75
2022-12-11T21:47:41.576Z,25.13
2022-12-11T21:50:09.488Z,25.52
2022-12-11T21:52:39.151Z,26.90
2022-12-11T21:55:07.946Z,25.20
2022-12-11T21:57:35.540Z,25.58
2022-12-11T22:00:04.736Z,26.05
2022-12-11T22:02:46.041Z,25.85
2022-12-11T22:05:14.036Z,28.75
2022-12-11T22:07:42.008Z,27.43
2022-12-11T22:10:10.275Z,25.45
2022-12-11T22:12:38.172Z,26.73
2022-12-11T22:15:06.893Z,22.48
2022-12-11T22:17:36.264Z,23.88
2022-12-11T22:20:06.291Z,24.02
2022-12-11T22:22:34.424Z,19.17
2022-12-11T22:25:03.612Z,20.70
2022-12-11T22:27:31.264Z,19.55
2022-12-11T22:29:59.062Z,20.48
2022-12-11T22:32:27.654Z,22.27
2022-12-11T22:34:57.657Z,20.40
2022-12-11T22:37:25.850Z,21.98
2022-12-11T22:39:53.730Z,21.98
2022-12-11T22:42:21.469Z,21.27
2022-12-11T22:44:49.514Z,23.90
2022-12-11T22:47:17.298Z,22.98
2022-12-11T22:49:45.077Z,24.70
2022-12-11T22:52:12.957Z,23.85
2022-12-11T22:54:42.131Z,23.70
2022-12-11T22:59:38.355Z,21.02
2022-12-11T23:02:06.375Z,22.75
2022-12-11T23:04:34.312Z,20.98
2022-12-11T23:07:02.003Z,22.52
2022-12-11T23:09:29.871Z,24.55
2022-12-11T23:11:58.532Z,20.87
2022-12-11T23:14:26.703Z,23.15
2022-12-11T23:16:54.604Z,20.50
2022-12-11T23:19:25.564Z,21.10
2022-12-11T23:21:54.648Z,20.30
2022-12-11T23:26:50.498Z,19.30
2022-12-11T23:29:18.100Z,22.92
2022-12-11T23:31:46.391Z,24.65
2022-12-11T23:34:13.963Z,26.73
2022-12-11T23:36:41.652Z,25.60
2022-12-11T23:39:09.296Z,24.73
2022-12-11T23:41:37.046Z,24.65
2022-12-11T23:44:04.834Z,23.45
2022-12-11T23:46:33.009Z,25.52
2022-12-11T23:49:00.963Z,25.90
2022-12-11T23:51:28.745Z,23.30
2022-12-11T23:53:56.511Z,22.83
2022-12-11T23:56:27.781Z,26.05
2022-12-11T23:58:56.564Z,23.00
